Acton, Indiana
Current Conditions -  °F | °C
As of 3:53 AM on Wednesday 22 Oct 2014 (Local Time) from KGEZ Reporting Station
Clear Clear  
Wind Chill: 37°   Ceiling: Unl
Heat Index: 41°   Visibility: 10mi
Dew Point: 36°   Wind: 6mph
Humidity: 82%   Direction: 350°N
Pressure: 30.22"   Gusts: NA
Location:  39.6613°N, 85.9949°W
Report Text: KGEZ 220753Z AUTO 35005KT 10SM CLR 05/02 A3022 RMK AO2 SLP237 T00500022
Loading
Personal Weather Stations






























Interactive Weather Map
Tropical Storm Tracking
New forecast layout! Learn more

10-Day Weather Forecast

Advertisements
Track Severe Weather on mobile